createdAt,value
2022-10-18T00:00:26.222Z,102160.66
2022-10-18T00:02:53.116Z,102154.56
2022-10-18T00:05:19.984Z,102172.16
2022-10-18T00:07:46.842Z,102178.38
2022-10-18T00:10:13.866Z,102171.34
2022-10-18T00:12:40.771Z,102172.25
2022-10-18T00:15:08.939Z,102170.53
2022-10-18T00:17:37.111Z,102171.44
2022-10-18T00:20:06.257Z,102167.88
2022-10-18T00:22:36.410Z,102182.03
2022-10-18T00:25:03.816Z,102179.38
2022-10-18T00:27:31.394Z,102179.47
2022-10-18T00:29:58.475Z,102186.50
2022-10-18T00:32:26.240Z,102185.63
2022-10-18T00:34:53.124Z,102176.84
2022-10-18T00:37:19.997Z,102182.16
2022-10-18T00:39:46.922Z,102178.66
2022-10-18T00:42:18.978Z,102173.41
2022-10-18T00:44:45.762Z,102174.31
2022-10-18T00:47:16.304Z,102176.09
2022-10-18T00:49:50.370Z,102174.38
2022-10-18T00:52:43.876Z,102183.25
2022-10-18T00:55:11.297Z,102184.13
2022-10-18T00:57:40.748Z,102182.38
2022-10-18T01:00:09.997Z,102193.84
2022-10-18T01:02:38.642Z,102194.75
2022-10-18T01:05:06.614Z,102204.44
2022-10-18T01:07:55.400Z,102200.94
2022-10-18T01:11:07.424Z,102199.19
2022-10-18T01:14:05.950Z,102193.00
2022-10-18T01:16:52.260Z,102192.16
2022-10-18T01:20:11.905Z,102194.84
2022-10-18T01:22:45.801Z,102190.44
2022-10-18T01:25:50.678Z,102181.66
2022-10-18T01:28:38.923Z,102185.22
2022-10-18T01:31:35.552Z,102189.63
2022-10-18T01:34:09.532Z,102186.13
2022-10-18T01:36:40.466Z,102193.16
2022-10-18T01:39:14.092Z,102194.94
2022-10-18T01:41:44.551Z,102192.34
2022-10-18T01:44:16.906Z,102197.63
2022-10-18T01:46:46.555Z,102197.63
2022-10-18T01:49:13.425Z,102202.94
2022-10-18T01:51:40.304Z,102203.84
2022-10-18T01:54:07.173Z,102195.94
2022-10-18T01:56:56.525Z,102205.66
2022-10-18T01:59:58.939Z,102205.69
2022-10-18T02:02:50.150Z,102203.97
2022-10-18T02:05:40.236Z,102200.47
2022-10-18T02:08:29.584Z,102199.66
2022-10-18T02:11:08.173Z,102190.00
2022-10-18T02:13:50.765Z,102193.53
2022-10-18T02:16:24.440Z,102196.19
2022-10-18T02:18:58.968Z,102199.69
2022-10-18T02:21:28.298Z,102203.25
2022-10-18T02:23:57.334Z,102205.03
2022-10-18T02:26:24.770Z,102196.22
2022-10-18T02:28:52.212Z,102220.88
2022-10-18T02:31:43.385Z,102205.91
2022-10-18T02:34:27.816Z,102200.66
2022-10-18T02:37:00.554Z,102206.84
2022-10-18T02:39:31.131Z,102209.50
2022-10-18T02:41:58.798Z,102219.16
2022-10-18T02:44:26.139Z,102220.91
2022-10-18T02:46:53.179Z,102231.44
2022-10-18T02:49:20.084Z,102222.69
2022-10-18T02:51:46.949Z,102222.69
2022-10-18T02:54:13.833Z,102229.72
2022-10-18T02:56:40.692Z,102232.41
2022-10-18T02:59:08.172Z,102236.81
2022-10-18T03:01:36.261Z,102240.31
2022-10-18T03:04:04.563Z,102231.56
2022-10-18T03:06:32.245Z,102231.56
2022-10-18T03:08:59.474Z,102226.28
2022-10-18T03:11:26.332Z,102228.00
2022-10-18T03:13:53.216Z,102230.69
2022-10-18T03:16:20.171Z,102230.72
2022-10-18T03:18:47.039Z,102229.81
2022-10-18T03:21:13.994Z,102224.56
2022-10-18T03:23:42.215Z,102223.69
2022-10-18T03:26:09.721Z,102225.41
2022-10-18T03:28:36.661Z,102214.03
2022-10-18T03:31:05.075Z,102230.69
2022-10-18T03:33:33.594Z,102225.44
2022-10-18T03:36:00.515Z,102233.38
2022-10-18T03:38:27.520Z,102234.25
2022-10-18T03:40:54.514Z,102228.09
2022-10-18T03:43:21.712Z,102234.25
2022-10-18T03:45:48.611Z,102236.88
2022-10-18T03:48:15.475Z,102232.50
2022-10-18T03:50:43.472Z,102238.66
2022-10-18T03:53:10.419Z,102248.34
2022-10-18T03:55:37.775Z,102236.00
2022-10-18T03:58:04.788Z,102238.63
2022-10-18T04:00:31.756Z,102225.44
2022-10-18T04:02:58.668Z,102226.31
2022-10-18T04:05:27.985Z,102227.22
2022-10-18T04:07:55.017Z,102218.41
2022-10-18T04:10:22.316Z,102217.53
2022-10-18T04:12:49.225Z,102209.59
2022-10-18T04:15:16.151Z,102216.66
2022-10-18T04:17:43.075Z,102218.41
2022-10-18T04:20:10.380Z,102221.06
2022-10-18T04:22:37.282Z,102216.69
2022-10-18T04:25:04.914Z,102224.59
2022-10-18T04:27:31.986Z,102223.72
2022-10-18T04:29:59.235Z,102223.75
2022-10-18T04:32:28.655Z,102232.53
2022-10-18T04:34:55.506Z,102238.72
2022-10-18T04:37:22.418Z,102237.84
2022-10-18T04:39:52.647Z,102235.19
2022-10-18T04:42:22.060Z,102234.34
2022-10-18T04:44:49.179Z,102241.38
2022-10-18T04:47:16.871Z,102235.25
2022-10-18T04:49:44.130Z,102228.19
2022-10-18T04:52:11.572Z,102219.41
2022-10-18T04:54:38.683Z,102224.69
2022-10-18T04:57:05.570Z,102235.25
2022-10-18T04:59:32.402Z,102237.00
2022-10-18T05:01:59.385Z,102233.50
2022-10-18T05:04:26.320Z,102236.16
2022-10-18T05:06:53.193Z,102237.06
2022-10-18T05:09:22.240Z,102227.41
2022-10-18T05:11:49.106Z,102223.00
2022-10-18T05:14:16.147Z,102220.38
2022-10-18T05:16:43.027Z,102213.34
2022-10-18T05:19:10.603Z,102213.38
2022-10-18T05:21:37.458Z,102206.34
2022-10-18T05:24:04.498Z,102199.31
2022-10-18T05:26:31.370Z,102197.59
2022-10-18T05:28:58.332Z,102190.56
2022-10-18T05:31:25.271Z,102194.97
2022-10-18T05:33:52.229Z,102191.44
2022-10-18T05:36:19.113Z,102196.72
2022-10-18T05:38:47.884Z,102191.47
2022-10-18T05:41:15.399Z,102196.72
2022-10-18T05:43:42.302Z,102193.19
2022-10-18T05:46:15.109Z,102201.97
2022-10-18T05:48:44.649Z,102200.25
2022-10-18T05:51:11.770Z,102202.91
2022-10-18T05:53:38.675Z,102202.91
2022-10-18T05:56:07.123Z,102198.47
2022-10-18T05:58:35.082Z,102195.84
2022-10-18T06:01:03.036Z,102206.41
2022-10-18T06:03:30.940Z,102201.13
2022-10-18T06:06:07.488Z,102210.81
2022-10-18T06:08:35.492Z,102201.16
2022-10-18T06:11:28.601Z,102212.56
2022-10-18T06:13:57.683Z,102207.28
2022-10-18T06:16:31.253Z,102219.59
2022-10-18T06:18:59.896Z,102225.75
2022-10-18T06:21:27.107Z,102216.97
2022-10-18T06:23:57.715Z,102224.88
2022-10-18T06:26:25.728Z,102218.75
2022-10-18T06:28:52.733Z,102215.25
2022-10-18T06:31:21.221Z,102230.16
2022-10-18T06:33:48.371Z,102235.44
2022-10-18T06:36:18.308Z,102234.59
2022-10-18T06:38:45.517Z,102239.84
2022-10-18T06:41:12.417Z,102239.84
2022-10-18T06:43:39.359Z,102239.81
2022-10-18T06:46:08.104Z,102238.94
2022-10-18T06:48:39.684Z,102235.44
2022-10-18T06:51:08.297Z,102227.53
2022-10-18T06:53:44.079Z,102225.75
2022-10-18T06:56:15.723Z,102221.31
2022-10-18T06:58:42.599Z,102213.41
2022-10-18T07:01:16.419Z,102213.44
2022-10-18T07:03:44.851Z,102218.69
2022-10-18T07:06:14.022Z,102217.81
2022-10-18T07:08:41.370Z,102228.38
2022-10-18T07:11:14.810Z,102227.47
2022-10-18T07:13:41.694Z,102229.22
2022-10-18T07:16:14.211Z,102237.16
2022-10-18T07:18:49.557Z,102233.63
2022-10-18T07:21:21.313Z,102242.41
2022-10-18T07:23:49.584Z,102243.28
2022-10-18T07:26:25.466Z,102244.16
2022-10-18T07:28:57.948Z,102259.97
2022-10-18T07:31:25.504Z,102261.75
2022-10-18T07:33:52.458Z,102270.50
2022-10-18T07:36:21.296Z,102266.13
2022-10-18T07:38:49.254Z,102258.22
2022-10-18T07:41:16.229Z,102268.75
2022-10-18T07:43:45.994Z,102275.78
2022-10-18T07:46:14.445Z,102260.84
2022-10-18T07:48:41.318Z,102272.28
2022-10-18T07:51:08.849Z,102267.91
2022-10-18T07:53:35.863Z,102266.13
2022-10-18T07:56:09.520Z,102268.78
2022-10-18T07:58:36.837Z,102270.53
2022-10-18T08:01:06.525Z,102276.69
2022-10-18T08:03:34.043Z,102275.81
2022-10-18T08:06:01.338Z,102282.84
2022-10-18T08:08:29.011Z,102283.69
2022-10-18T08:10:56.205Z,102279.28
2022-10-18T08:13:23.084Z,102280.22
2022-10-18T08:15:49.973Z,102277.53
2022-10-18T08:18:16.849Z,102284.56
2022-10-18T08:20:45.403Z,102277.56
2022-10-18T08:23:12.264Z,102285.47
2022-10-18T08:25:39.167Z,102280.22
2022-10-18T08:28:07.052Z,102281.09
2022-10-18T08:30:35.432Z,102281.94
2022-10-18T08:33:03.428Z,102282.81
2022-10-18T08:35:31.750Z,102274.91
2022-10-18T08:37:59.406Z,102272.28
2022-10-18T08:40:27.610Z,102266.97
2022-10-18T08:43:24.250Z,102261.72
2022-10-18T08:45:53.415Z,102260.84
2022-10-18T08:48:43.991Z,102267.00
2022-10-18T08:51:33.518Z,102252.03
2022-10-18T08:54:12.796Z,102258.19
2022-10-18T08:56:43.684Z,102264.34
2022-10-18T08:59:12.191Z,102261.72
2022-10-18T09:02:15.495Z,102264.34
2022-10-18T09:05:19.062Z,102265.22
2022-10-18T09:08:17.097Z,102258.19
2022-10-18T09:11:38.773Z,102260.81
2022-10-18T09:14:37.272Z,102260.84
2022-10-18T09:18:10.383Z,102269.59
2022-10-18T09:21:00.416Z,102271.34
2022-10-18T09:24:13.444Z,102275.75
2022-10-18T09:26:49.944Z,102273.13
2022-10-18T09:30:02.822Z,102270.47
2022-10-18T09:32:58.523Z,102280.13
2022-10-18T09:35:31.822Z,102275.72
2022-10-18T09:38:05.978Z,102275.72
2022-10-18T09:40:38.768Z,102268.66
2022-10-18T09:43:20.655Z,102272.13
2022-10-18T09:45:48.909Z,102273.88
2022-10-18T09:48:29.625Z,102267.69
2022-10-18T09:51:12.569Z,102270.31
2022-10-18T09:54:17.736Z,102267.69
2022-10-18T09:59:38.312Z,102257.09
2022-10-18T10:02:06.373Z,102251.81
2022-10-18T10:04:33.313Z,102246.53
2022-10-18T10:07:02.101Z,102239.47
2022-10-18T10:09:37.600Z,102254.41
2022-10-18T10:12:04.671Z,102242.97
2022-10-18T10:14:44.090Z,102249.16
2022-10-18T10:17:29.660Z,102242.97
2022-10-18T10:20:14.527Z,102242.09
2022-10-18T10:22:42.838Z,102240.31
2022-10-18T10:25:30.850Z,102235.94
2022-10-18T10:28:16.967Z,102239.41
2022-10-18T10:30:43.865Z,102240.28
2022-10-18T10:33:38.377Z,102245.56
2022-10-18T10:36:17.348Z,102232.31
2022-10-18T10:38:44.382Z,102233.19
2022-10-18T10:41:21.364Z,102237.59
2022-10-18T10:43:49.118Z,102240.19
2022-10-18T10:46:23.062Z,102242.81
2022-10-18T10:49:08.454Z,102241.03
2022-10-18T10:51:42.106Z,102241.88
2022-10-18T10:54:21.402Z,102226.88
2022-10-18T10:57:03.962Z,102232.13
2022-10-18T10:59:53.539Z,102228.53
2022-10-18T11:02:30.518Z,102224.16
2022-10-18T11:05:17.086Z,102229.38
2022-10-18T11:07:46.736Z,102218.78
2022-10-18T11:10:21.484Z,102212.56
2022-10-18T11:13:18.865Z,102220.47
2022-10-18T11:15:50.741Z,102215.19
2022-10-18T11:18:25.738Z,102213.38
2022-10-18T11:21:07.866Z,102205.44
2022-10-18T11:23:37.899Z,102202.75
2022-10-18T11:26:28.719Z,102220.34
2022-10-18T11:29:28.593Z,102211.56
2022-10-18T11:32:27.796Z,102205.41
2022-10-18T11:35:15.108Z,102215.09
2022-10-18T11:38:22.789Z,102206.34
2022-10-18T11:41:02.616Z,102207.25
2022-10-18T11:44:02.720Z,102203.75
2022-10-18T11:47:19.548Z,102204.66
2022-10-18T11:50:08.728Z,102206.47
2022-10-18T11:53:19.741Z,102203.78
2022-10-18T11:56:33.434Z,102196.72
2022-10-18T11:59:37.872Z,102195.78
2022-10-18T12:03:05.036Z,102197.47
2022-10-18T12:05:32.901Z,102190.41
2022-10-18T12:08:09.915Z,102193.91
2022-10-18T12:10:52.849Z,102195.59
2022-10-18T12:13:49.288Z,102196.47
2022-10-18T12:16:25.530Z,102199.16
2022-10-18T12:19:08.771Z,102200.06
2022-10-18T12:21:37.031Z,102201.84
2022-10-18T12:24:12.491Z,102196.56
2022-10-18T12:26:39.463Z,102198.31
2022-10-18T12:29:35.604Z,102198.34
2022-10-18T12:32:09.809Z,102179.00
2022-10-18T12:34:43.876Z,102186.84
2022-10-18T12:37:56.773Z,102188.59
2022-10-18T12:40:33.916Z,102196.56
2022-10-18T12:43:09.608Z,102205.38
2022-10-18T12:45:56.183Z,102184.31
2022-10-18T12:48:39.023Z,102200.06
2022-10-18T12:51:22.011Z,102202.72
2022-10-18T12:54:01.547Z,102205.41
2022-10-18T12:56:28.273Z,102204.53
2022-10-18T12:59:15.237Z,102198.38
2022-10-18T13:01:50.975Z,102205.44
2022-10-18T13:04:33.548Z,102195.75
2022-10-18T13:07:07.814Z,102202.75
2022-10-18T13:09:37.166Z,102207.19
2022-10-18T13:12:10.061Z,102208.06
2022-10-18T13:15:24.204Z,102211.66
2022-10-18T13:18:14.850Z,102213.47
2022-10-18T13:20:57.477Z,102234.66
2022-10-18T13:24:06.286Z,102225.97
2022-10-18T13:27:24.478Z,102219.88
2022-10-18T13:30:26.091Z,102218.13
2022-10-18T13:33:23.244Z,102219.06
2022-10-18T13:35:57.376Z,102221.69
2022-10-18T13:38:55.649Z,102224.34
2022-10-18T13:41:42.209Z,102219.06
2022-10-18T13:44:40.247Z,102220.84
2022-10-18T13:47:07.070Z,102219.09
2022-10-18T13:49:39.736Z,102211.19
2022-10-18T13:52:22.834Z,102205.97
2022-10-18T13:55:35.147Z,102206.91
2022-10-18T13:58:17.594Z,102207.81
2022-10-18T14:01:37.660Z,102210.47
2022-10-18T14:05:11.157Z,102203.47
2022-10-18T14:07:48.949Z,102207.03
2022-10-18T14:11:03.064Z,102227.25
2022-10-18T14:13:47.704Z,102206.16
2022-10-18T14:16:40.188Z,102214.09
2022-10-18T14:19:46.078Z,102222.03
2022-10-18T14:22:49.974Z,102218.53
2022-10-18T14:25:37.891Z,102217.69
2022-10-18T14:28:12.240Z,102225.59
2022-10-18T14:31:06.139Z,102226.47
2022-10-18T14:33:43.485Z,102224.75
2022-10-18T14:36:16.479Z,102218.59
2022-10-18T14:38:54.975Z,102209.84
2022-10-18T14:41:26.977Z,102222.13
2022-10-18T14:44:14.716Z,102220.41
2022-10-18T14:46:58.372Z,102209.00
2022-10-18T14:49:25.259Z,102217.78
2022-10-18T14:51:55.755Z,102210.75
2022-10-18T14:54:33.689Z,102221.34
2022-10-18T14:57:02.009Z,102209.91
2022-10-18T14:59:33.715Z,102216.94
2022-10-18T15:02:06.647Z,102216.06
2022-10-18T15:04:33.567Z,102216.94
2022-10-18T15:07:03.915Z,102209.03
2022-10-18T15:09:34.663Z,102204.66
2022-10-18T15:12:06.870Z,102209.03
2022-10-18T15:14:35.631Z,102203.78
2022-10-18T15:17:12.007Z,102199.41
2022-10-18T15:19:39.517Z,102202.03
2022-10-18T15:25:22.105Z,102195.03
2022-10-18T15:27:57.922Z,102206.47
2022-10-18T15:30:28.776Z,102215.25
2022-10-18T15:33:10.338Z,102206.47
2022-10-18T15:35:39.330Z,102203.81
2022-10-18T15:38:21.338Z,102209.97
2022-10-18T15:40:48.389Z,102202.97
2022-10-18T15:43:24.411Z,102205.63
2022-10-18T15:46:06.770Z,102204.75
2022-10-18T15:48:40.654Z,102200.34
2022-10-18T15:51:19.567Z,102208.25
2022-10-18T15:53:54.502Z,102206.50
2022-10-18T15:56:32.333Z,102201.25
2022-10-18T15:59:04.057Z,102203.00
2022-10-18T16:01:39.519Z,102205.56
2022-10-18T16:04:24.431Z,102209.09
2022-10-18T16:06:51.672Z,102209.09
2022-10-18T16:09:21.580Z,102204.66
2022-10-18T16:11:56.380Z,102205.56
2022-10-18T16:14:24.849Z,102205.53
2022-10-18T16:16:55.602Z,102208.16
2022-10-18T16:19:22.891Z,102202.00
2022-10-18T16:21:51.619Z,102203.75
2022-10-18T16:24:19.958Z,102210.75
2022-10-18T16:26:47.392Z,102214.25
2022-10-18T16:29:21.787Z,102218.59
2022-10-18T16:31:50.786Z,102216.88
2022-10-18T16:34:18.389Z,102203.66
2022-10-18T16:36:45.671Z,102218.56
2022-10-18T16:39:16.921Z,102214.16
2022-10-18T16:41:44.376Z,102226.41
2022-10-18T16:44:11.651Z,102222.91
2022-10-18T16:46:39.192Z,102224.59
2022-10-18T16:49:06.924Z,102226.31
2022-10-18T16:51:33.839Z,102216.66
2022-10-18T16:54:00.735Z,102216.63
2022-10-18T16:56:30.777Z,102219.25
2022-10-18T16:58:58.731Z,102210.41
2022-10-18T17:01:26.413Z,102223.56
2022-10-18T17:03:53.989Z,102223.50
2022-10-18T17:06:27.798Z,102220.84
2022-10-18T17:08:55.806Z,102215.56
2022-10-18T17:11:26.341Z,102223.44
2022-10-18T17:13:53.348Z,102233.94
2022-10-18T17:19:06.250Z,102232.97
2022-10-18T17:21:34.044Z,102224.22
2022-10-18T17:24:05.983Z,102224.16
2022-10-18T17:26:34.318Z,102234.66
2022-10-18T17:29:05.656Z,102235.50
2022-10-18T17:31:33.017Z,102248.63
2022-10-18T17:34:01.734Z,102241.56
2022-10-18T17:36:31.538Z,102240.69
2022-10-18T17:38:58.762Z,102240.66
2022-10-18T17:41:25.776Z,102244.09
2022-10-18T17:43:52.662Z,102247.63
2022-10-18T17:46:20.203Z,102248.50
2022-10-18T17:48:47.662Z,102243.16
2022-10-18T17:51:17.046Z,102251.00
2022-10-18T17:53:44.558Z,102257.13
2022-10-18T17:56:12.369Z,102249.25
2022-10-18T17:58:39.270Z,102252.75
2022-10-18T18:01:20.108Z,102254.47
2022-10-18T18:03:47.892Z,102257.09
2022-10-18T18:06:34.013Z,102253.59
2022-10-18T18:09:16.020Z,102258.81
2022-10-18T18:11:47.255Z,102257.97
2022-10-18T18:14:15.949Z,102257.97
2022-10-18T18:16:46.069Z,102263.28
2022-10-18T18:19:14.287Z,102262.38
2022-10-18T18:21:42.527Z,102269.44
2022-10-18T18:24:10.786Z,102271.22
2022-10-18T18:26:39.202Z,102279.13
2022-10-18T18:29:06.254Z,102272.13
2022-10-18T18:31:38.764Z,102271.28
2022-10-18T18:34:09.609Z,102276.50
2022-10-18T18:36:36.828Z,102280.91
2022-10-18T18:39:05.617Z,102266.91
2022-10-18T18:41:33.033Z,102267.81
2022-10-18T18:44:03.246Z,102277.44
2022-10-18T18:46:36.589Z,102270.47
2022-10-18T18:49:04.855Z,102266.97
2022-10-18T18:51:33.144Z,102266.97
2022-10-18T18:54:00.376Z,102271.41
2022-10-18T18:56:28.933Z,102284.53
2022-10-18T18:58:56.844Z,102270.56
2022-10-18T19:01:27.780Z,102276.66
2022-10-18T19:03:57.143Z,102279.31
2022-10-18T19:06:28.165Z,102270.56
2022-10-18T19:09:01.406Z,102275.84
2022-10-18T19:11:34.588Z,102260.03
2022-10-18T19:14:02.831Z,102268.84
2022-10-18T19:16:36.009Z,102270.59
2022-10-18T19:19:10.739Z,102273.22
2022-10-18T19:21:41.039Z,102271.50
2022-10-18T19:24:08.300Z,102270.63
2022-10-18T19:26:45.168Z,102267.09
2022-10-18T19:29:24.055Z,102278.50
2022-10-18T19:31:54.179Z,102275.00
2022-10-18T19:34:23.071Z,102275.00
2022-10-18T19:36:50.731Z,102286.41
2022-10-18T19:39:30.146Z,102286.41
2022-10-18T19:42:00.199Z,102289.94
2022-10-18T19:44:30.922Z,102298.72
2022-10-18T19:46:57.965Z,102283.78
2022-10-18T19:49:25.099Z,102281.22
2022-10-18T19:51:52.251Z,102283.00
2022-10-18T19:54:19.143Z,102285.63
2022-10-18T19:56:46.305Z,102290.84
2022-10-18T19:59:15.437Z,102287.38
2022-10-18T20:01:43.099Z,102288.25
2022-10-18T20:04:11.079Z,102282.13
2022-10-18T20:06:38.978Z,102286.50
2022-10-18T20:09:08.458Z,102277.72
2022-10-18T20:11:36.256Z,102272.47
2022-10-18T20:14:05.346Z,102283.84
2022-10-18T20:16:33.609Z,102284.72
2022-10-18T20:19:03.337Z,102280.31
2022-10-18T20:21:35.403Z,102285.56
2022-10-18T20:24:06.000Z,102289.94
2022-10-18T20:26:33.643Z,102292.59
2022-10-18T20:29:00.571Z,102289.94
2022-10-18T20:31:35.558Z,102288.19
2022-10-18T20:34:05.870Z,102285.56
2022-10-18T20:36:34.394Z,102284.69
2022-10-18T20:39:01.607Z,102273.34
2022-10-18T20:41:32.222Z,102272.44
2022-10-18T20:44:05.443Z,102264.56
2022-10-18T20:46:35.536Z,102266.31
2022-10-18T20:49:03.974Z,102269.81
2022-10-18T20:51:33.424Z,102266.31
2022-10-18T20:56:34.349Z,102278.53
2022-10-18T20:59:01.962Z,102279.44
2022-10-18T21:01:34.086Z,102275.03
2022-10-18T21:04:04.682Z,102282.03
2022-10-18T21:06:36.898Z,102282.03
2022-10-18T21:09:11.582Z,102281.16
2022-10-18T21:11:41.398Z,102280.25
2022-10-18T21:14:13.290Z,102274.13
2022-10-18T21:16:41.043Z,102273.25
2022-10-18T21:19:17.686Z,102275.00
2022-10-18T21:21:47.395Z,102268.88
2022-10-18T21:24:14.616Z,102271.50
2022-10-18T21:26:41.575Z,102273.22
2022-10-18T21:29:09.790Z,102271.50
2022-10-18T21:31:40.174Z,102267.97
2022-10-18T21:34:13.422Z,102267.97
2022-10-18T21:36:41.914Z,102265.34
2022-10-18T21:39:15.692Z,102270.59
2022-10-18T21:41:43.556Z,102263.56
2022-10-18T21:44:11.352Z,102270.59
2022-10-18T21:46:39.621Z,102268.84
2022-10-18T21:49:07.566Z,102266.19
2022-10-18T21:51:35.074Z,102263.59
2022-10-18T21:54:02.217Z,102265.31
2022-10-18T21:56:35.123Z,102270.56
2022-10-18T21:59:02.578Z,102270.56
2022-10-18T22:01:35.759Z,102273.16
2022-10-18T22:04:06.200Z,102268.78
2022-10-18T22:09:08.403Z,102271.41
2022-10-18T22:11:46.468Z,102272.28
2022-10-18T22:14:13.344Z,102264.38
2022-10-18T22:16:40.198Z,102262.59
2022-10-18T22:19:07.875Z,102271.34
2022-10-18T22:21:35.099Z,102260.81
2022-10-18T22:24:07.411Z,102269.53
2022-10-18T22:26:37.856Z,102274.78
2022-10-18T22:29:08.726Z,102268.63
2022-10-18T22:31:39.266Z,102279.13
2022-10-18T22:34:11.359Z,102280.03
2022-10-18T22:36:38.984Z,102272.13
2022-10-18T22:39:07.179Z,102280.03
2022-10-18T22:41:35.283Z,102279.13
2022-10-18T22:44:03.674Z,102270.38
2022-10-18T22:46:32.529Z,102266.00
2022-10-18T22:48:59.407Z,102268.66
2022-10-18T22:51:26.535Z,102273.00
2022-10-18T22:53:53.433Z,102268.63
2022-10-18T22:56:21.892Z,102256.28
2022-10-18T22:58:49.206Z,102255.44
2022-10-18T23:01:22.454Z,102260.75
2022-10-18T23:03:57.688Z,102261.63
2022-10-18T23:06:34.109Z,102265.97
2022-10-18T23:09:05.539Z,102270.34
2022-10-18T23:11:34.158Z,102265.97
2022-10-18T23:14:03.621Z,102254.63
2022-10-18T23:16:31.180Z,102258.13
2022-10-18T23:18:58.865Z,102267.75
2022-10-18T23:21:28.022Z,102264.25
2022-10-18T23:23:56.358Z,102267.69
2022-10-18T23:26:26.531Z,102259.81
2022-10-18T23:28:54.556Z,102265.94
2022-10-18T23:31:23.878Z,102267.69
2022-10-18T23:33:54.978Z,102270.31
2022-10-18T23:36:23.546Z,102264.16
2022-10-18T23:38:50.935Z,102266.78
2022-10-18T23:41:18.819Z,102253.66
2022-10-18T23:43:46.716Z,102261.50
2022-10-18T23:46:15.692Z,102266.75
2022-10-18T23:48:42.662Z,102269.41
2022-10-18T23:51:10.377Z,102265.00
2022-10-18T23:53:37.794Z,102272.00
2022-10-18T23:56:12.909Z,102271.97
2022-10-18T23:58:40.627Z,102266.72
